Lowgap, North Carolina
Current Conditions -  °F | °C
As of 12:55 PM on Sunday 21 Dec 2014 (Local Time) from KHLX Reporting Station
Overcast Overcast  
Wind Chill: 40°   Ceiling: 1900
Heat Index: 40°   Visibility: 10mi
Dew Point: 34°   Wind: 3mph
Humidity: 78%   Direction: 130°SE
Pressure: 30.17"   Gusts: NA
Location:  36.53°N, 80.87°W
Report Text: KHLX 211755Z AUTO 13003KT 10SM BKN019 OVC024 05/01 A3017 RMK AO2 T00470012 10047 20010
Loading
Personal Weather Stations






























Interactive Weather Map New forecast layout! Learn more

10-Day Weather Forecast

Advertisements
Track Severe Weather on mobile